X  Luk Metar data     EKRN Bornholm Airport
Temperatur
13°C Temperatur
10°C Duggpunkt
82% Fugtighed



Vind
9 M/S
21 MPT
34 KM/T
18 KNOB



60°
ØNØ
Nuværende forhold

Klart Klart
Tryk 1014.9 (hPa) - 29.97 (inHg)
Sigt 6 (mil) - 9.7 (km)
Lufthavn
Lufthavnskode EKRN

Lokation: Bornholm Airport
Afstand: 20 (km)

Metar:
EKRN 201820Z AUTO 06018KT 9999 NCD 13/10 Q1015

Tid: 20-05-2024 18:20 CEST